createdAt,value
2019-06-26T00:02:26.264Z,960.00
2019-06-26T00:04:52.601Z,960.05
2019-06-26T00:07:18.908Z,960.08
2019-06-26T00:09:45.245Z,960.03
2019-06-26T00:12:11.551Z,960.03
2019-06-26T00:14:39.027Z,960.03
2019-06-26T00:17:04.196Z,960.08
2019-06-26T00:19:30.534Z,960.10
2019-06-26T00:21:56.834Z,960.20
2019-06-26T00:24:23.145Z,960.14
2019-06-26T00:26:49.484Z,960.15
2019-06-26T00:29:15.833Z,960.12
2019-06-26T00:31:42.161Z,960.15
2019-06-26T00:34:08.475Z,960.20
2019-06-26T00:36:34.803Z,960.19
2019-06-26T00:39:01.119Z,960.05
2019-06-26T00:41:27.450Z,960.04
2019-06-26T00:43:53.774Z,960.06
2019-06-26T00:46:20.108Z,960.09
2019-06-26T00:48:46.418Z,960.14
2019-06-26T00:51:12.724Z,960.11
2019-06-26T00:53:39.053Z,960.13
2019-06-26T00:56:05.420Z,960.07
2019-06-26T00:58:31.708Z,960.10
2019-06-26T01:00:58.019Z,960.17
2019-06-26T01:03:24.333Z,960.16
2019-06-26T01:05:50.668Z,960.20
2019-06-26T01:08:16.983Z,960.12
2019-06-26T01:10:43.317Z,960.04
2019-06-26T01:13:09.636Z,960.01
2019-06-26T01:15:35.940Z,959.98
2019-06-26T01:18:02.269Z,960.08
2019-06-26T01:20:28.582Z,960.16
2019-06-26T01:22:54.893Z,960.25
2019-06-26T01:25:21.230Z,960.17
2019-06-26T01:27:47.536Z,960.20
2019-06-26T01:30:13.878Z,960.11
2019-06-26T01:32:40.180Z,960.12
2019-06-26T01:35:06.516Z,960.22
2019-06-26T01:37:32.823Z,960.21
2019-06-26T01:39:59.162Z,960.20
2019-06-26T01:42:25.487Z,960.20
2019-06-26T01:44:51.797Z,960.23
2019-06-26T01:47:18.130Z,960.19
2019-06-26T01:49:44.445Z,960.29
2019-06-26T01:52:10.775Z,960.35
2019-06-26T01:54:37.096Z,960.32
2019-06-26T01:57:03.424Z,960.25
2019-06-26T01:59:29.750Z,960.26
2019-06-26T02:01:56.042Z,960.20
2019-06-26T02:04:22.366Z,960.16
2019-06-26T02:06:48.673Z,960.20
2019-06-26T02:09:15.001Z,960.28
2019-06-26T02:11:41.305Z,960.30
2019-06-26T02:14:07.630Z,960.23
2019-06-26T02:16:33.938Z,960.27
2019-06-26T02:19:00.269Z,960.17
2019-06-26T02:21:26.597Z,960.22
2019-06-26T02:23:52.902Z,960.24
2019-06-26T02:26:19.238Z,960.32
2019-06-26T02:28:45.552Z,960.33
2019-06-26T02:31:11.855Z,960.34
2019-06-26T02:33:38.186Z,960.25
2019-06-26T02:36:04.496Z,960.35
2019-06-26T02:38:30.829Z,960.32
2019-06-26T02:40:57.156Z,960.36
2019-06-26T02:43:23.483Z,960.33
2019-06-26T02:45:49.803Z,960.34
2019-06-26T02:48:16.107Z,960.28
2019-06-26T02:50:42.432Z,960.36
2019-06-26T02:53:08.733Z,960.34
2019-06-26T02:55:35.066Z,960.25
2019-06-26T02:58:01.365Z,960.34
2019-06-26T03:00:27.683Z,960.30
2019-06-26T03:02:54.001Z,960.30
2019-06-26T03:05:20.311Z,960.34
2019-06-26T03:07:46.704Z,960.32
2019-06-26T03:10:13.033Z,960.37
2019-06-26T03:12:39.345Z,960.38
2019-06-26T03:15:09.196Z,960.39
2019-06-26T03:17:31.979Z,960.28
2019-06-26T03:19:58.287Z,960.34
2019-06-26T03:22:24.610Z,960.34
2019-06-26T03:24:50.914Z,960.30
2019-06-26T03:27:17.249Z,960.38
2019-06-26T03:29:43.554Z,960.34
2019-06-26T03:32:09.880Z,960.36
2019-06-26T03:34:36.189Z,960.34
2019-06-26T03:37:02.521Z,960.34
2019-06-26T03:39:28.858Z,960.21
2019-06-26T03:41:55.164Z,960.22
2019-06-26T03:44:21.476Z,960.21
2019-06-26T03:46:47.787Z,960.27
2019-06-26T03:49:14.092Z,960.20
2019-06-26T03:51:40.440Z,960.26
2019-06-26T03:54:06.722Z,960.29
2019-06-26T03:56:33.059Z,960.29
2019-06-26T03:58:59.386Z,960.27
2019-06-26T04:01:25.688Z,960.29
2019-06-26T04:03:52.028Z,960.33
2019-06-26T04:06:18.328Z,960.45
2019-06-26T04:08:44.730Z,960.47
2019-06-26T04:11:10.965Z,960.40
2019-06-26T04:13:37.308Z,960.49
2019-06-26T04:16:03.614Z,960.45
2019-06-26T04:18:29.920Z,960.46
2019-06-26T04:20:56.320Z,960.48
2019-06-26T04:23:22.949Z,960.42
2019-06-26T04:25:48.957Z,960.38
2019-06-26T04:28:15.262Z,960.42
2019-06-26T04:30:41.583Z,960.44
2019-06-26T04:33:07.895Z,960.44
2019-06-26T04:35:34.221Z,960.51
2019-06-26T04:38:00.547Z,960.52
2019-06-26T04:40:26.851Z,960.49
2019-06-26T04:42:53.182Z,960.57
2019-06-26T04:45:19.516Z,960.53
2019-06-26T04:47:45.846Z,960.50
2019-06-26T04:50:12.140Z,960.56
2019-06-26T04:52:38.471Z,960.54
2019-06-26T04:55:04.772Z,960.57
2019-06-26T04:57:31.079Z,960.64
2019-06-26T04:59:57.424Z,960.65
2019-06-26T05:02:23.748Z,960.70
2019-06-26T05:04:50.092Z,960.68
2019-06-26T05:07:16.421Z,960.69
2019-06-26T05:09:42.721Z,960.69
2019-06-26T05:12:09.791Z,960.69
2019-06-26T05:14:36.093Z,960.75
2019-06-26T05:17:02.425Z,960.78
2019-06-26T05:19:28.738Z,960.81
2019-06-26T05:21:55.156Z,960.71
2019-06-26T05:24:21.485Z,960.81
2019-06-26T05:26:47.799Z,960.87
2019-06-26T05:29:14.125Z,960.93
2019-06-26T05:31:40.433Z,960.88
2019-06-26T05:34:10.520Z,960.89
2019-06-26T05:36:33.095Z,960.90
2019-06-26T05:38:59.402Z,960.90
2019-06-26T05:41:25.733Z,960.97
2019-06-26T05:43:52.110Z,960.95
2019-06-26T05:46:30.564Z,960.95
2019-06-26T05:48:44.696Z,960.90
2019-06-26T05:51:10.996Z,960.90
2019-06-26T05:53:37.296Z,960.96
2019-06-26T05:56:03.597Z,961.03
2019-06-26T05:58:29.922Z,961.08
2019-06-26T06:00:56.222Z,961.11
2019-06-26T06:03:22.548Z,961.07
2019-06-26T06:05:48.858Z,961.02
2019-06-26T06:08:15.200Z,960.99
2019-06-26T06:10:41.519Z,960.98
2019-06-26T06:13:07.887Z,960.98
2019-06-26T06:15:34.212Z,961.10
2019-06-26T06:18:00.516Z,961.10
2019-06-26T06:20:26.843Z,961.02
2019-06-26T06:22:53.152Z,961.03
2019-06-26T06:25:19.475Z,961.00
2019-06-26T06:27:45.794Z,961.03
2019-06-26T06:30:12.100Z,961.10
2019-06-26T06:32:38.428Z,961.08
2019-06-26T06:35:04.776Z,961.09
2019-06-26T06:37:31.147Z,961.09
2019-06-26T06:39:57.471Z,961.00
2019-06-26T06:42:23.862Z,961.18
2019-06-26T06:44:50.178Z,961.20
2019-06-26T06:47:16.483Z,961.17
2019-06-26T06:49:42.814Z,961.19
2019-06-26T06:52:09.134Z,961.15
2019-06-26T06:54:35.424Z,961.17
2019-06-26T06:57:01.748Z,961.17
2019-06-26T06:59:28.094Z,961.15
2019-06-26T07:01:54.420Z,961.15
2019-06-26T07:04:20.724Z,961.16
2019-06-26T07:06:47.060Z,961.23
2019-06-26T07:09:13.363Z,961.24
2019-06-26T07:11:39.711Z,961.24
2019-06-26T07:14:06.052Z,961.26
2019-06-26T07:16:32.353Z,961.33
2019-06-26T07:18:58.687Z,961.34
2019-06-26T07:21:24.985Z,961.34
2019-06-26T07:23:51.311Z,961.36
2019-06-26T07:26:17.618Z,961.35
2019-06-26T07:28:43.949Z,961.34
2019-06-26T07:31:10.331Z,961.39
2019-06-26T07:33:36.719Z,961.42
2019-06-26T07:36:03.040Z,961.37
2019-06-26T07:38:29.351Z,961.34
2019-06-26T07:40:55.693Z,961.32
2019-06-26T07:43:22.007Z,961.28
2019-06-26T07:45:48.309Z,961.35
2019-06-26T07:48:14.652Z,961.28
2019-06-26T07:50:41.000Z,961.35
2019-06-26T07:53:07.323Z,961.35
2019-06-26T07:55:33.656Z,961.40
2019-06-26T07:57:59.985Z,961.40
2019-06-26T08:00:26.316Z,961.36
2019-06-26T08:02:52.620Z,961.40
2019-06-26T08:05:18.955Z,961.32
2019-06-26T08:07:45.253Z,961.39
2019-06-26T08:10:11.586Z,961.40
2019-06-26T08:12:37.903Z,961.34
2019-06-26T08:15:04.209Z,961.41
2019-06-26T08:17:30.540Z,961.47
2019-06-26T08:19:56.862Z,961.44
2019-06-26T08:22:23.216Z,961.43
2019-06-26T08:24:49.545Z,961.40
2019-06-26T08:27:15.852Z,961.42
2019-06-26T08:29:42.179Z,961.47
2019-06-26T08:32:08.496Z,961.45
2019-06-26T08:34:34.818Z,961.45
2019-06-26T08:37:01.137Z,961.51
2019-06-26T08:39:27.446Z,961.52
2019-06-26T08:41:53.766Z,961.54
2019-06-26T08:44:20.085Z,961.60
2019-06-26T08:46:46.436Z,961.61
2019-06-26T08:49:24.882Z,961.67
2019-06-26T08:51:39.056Z,961.70
2019-06-26T08:54:05.383Z,961.66
2019-06-26T08:56:31.684Z,961.65
2019-06-26T08:58:58.021Z,961.64
2019-06-26T09:01:24.342Z,961.59
2019-06-26T09:03:50.650Z,961.74
2019-06-26T09:06:16.980Z,961.69
2019-06-26T09:08:43.293Z,961.72
2019-06-26T09:11:09.601Z,961.66
2019-06-26T09:13:35.934Z,961.71
2019-06-26T09:16:02.252Z,961.66
2019-06-26T09:18:35.344Z,961.65
2019-06-26T09:20:54.918Z,961.60
2019-06-26T09:23:21.238Z,961.61
2019-06-26T09:25:47.544Z,961.68
2019-06-26T09:28:13.870Z,961.68
2019-06-26T09:30:40.192Z,961.68
2019-06-26T09:33:06.488Z,961.61
2019-06-26T09:35:32.818Z,961.59
2019-06-26T09:37:59.155Z,961.59
2019-06-26T09:40:25.452Z,961.51
2019-06-26T09:42:51.758Z,961.59
2019-06-26T09:45:18.088Z,961.58
2019-06-26T09:47:44.394Z,961.57
2019-06-26T09:50:10.700Z,961.48
2019-06-26T09:52:37.023Z,961.53
2019-06-26T09:55:03.324Z,961.53
2019-06-26T09:57:29.651Z,961.51
2019-06-26T09:59:55.957Z,961.54
2019-06-26T10:02:22.306Z,961.48
2019-06-26T10:04:48.612Z,961.47
2019-06-26T10:07:14.941Z,961.44
2019-06-26T10:09:41.266Z,961.45
2019-06-26T10:12:07.571Z,961.43
2019-06-26T10:14:46.577Z,961.36
2019-06-26T10:17:00.215Z,961.36
2019-06-26T10:19:26.533Z,961.36
2019-06-26T10:21:52.859Z,961.32
2019-06-26T10:24:19.169Z,961.30
2019-06-26T10:26:45.498Z,961.25
2019-06-26T10:29:11.820Z,961.14
2019-06-26T10:31:38.144Z,961.19
2019-06-26T10:34:04.475Z,961.11
2019-06-26T10:36:30.789Z,961.19
2019-06-26T10:38:57.112Z,961.15
2019-06-26T10:41:23.421Z,961.10
2019-06-26T10:43:49.755Z,961.07
2019-06-26T10:46:16.059Z,961.12
2019-06-26T10:48:42.373Z,961.02
2019-06-26T10:51:08.731Z,961.02
2019-06-26T10:53:35.033Z,960.99
2019-06-26T10:56:01.368Z,960.95
2019-06-26T10:58:27.679Z,960.81
2019-06-26T11:00:53.997Z,960.92
2019-06-26T11:03:20.300Z,960.90
2019-06-26T11:05:46.659Z,960.89
2019-06-26T11:08:12.952Z,960.80
2019-06-26T11:10:39.270Z,960.77
2019-06-26T11:13:05.591Z,960.78
2019-06-26T11:15:31.893Z,960.79
2019-06-26T11:17:58.215Z,960.83
2019-06-26T11:20:24.524Z,960.77
2019-06-26T11:22:50.872Z,960.84
2019-06-26T11:25:17.168Z,960.78
2019-06-26T11:27:43.461Z,960.87
2019-06-26T11:30:09.807Z,960.79
2019-06-26T11:32:36.130Z,960.81
2019-06-26T11:35:02.580Z,960.77
2019-06-26T11:37:28.809Z,960.76
2019-06-26T11:39:55.164Z,960.64
2019-06-26T11:42:21.456Z,960.61
2019-06-26T11:44:47.740Z,960.70
2019-06-26T11:47:14.056Z,960.61
2019-06-26T11:49:40.385Z,960.61
2019-06-26T11:52:06.706Z,960.59
2019-06-26T11:54:33.008Z,960.52
2019-06-26T11:56:59.317Z,960.59
2019-06-26T11:59:25.638Z,960.57
2019-06-26T12:01:51.971Z,960.55
2019-06-26T12:04:18.281Z,960.57
2019-06-26T12:06:46.082Z,960.57
2019-06-26T12:09:10.905Z,960.56
2019-06-26T12:11:37.240Z,960.47
2019-06-26T12:14:03.542Z,960.49
2019-06-26T12:16:29.888Z,960.45
2019-06-26T12:18:56.193Z,960.39
2019-06-26T12:21:22.517Z,960.38
2019-06-26T12:23:48.821Z,960.38
2019-06-26T12:26:15.128Z,960.37
2019-06-26T12:28:41.451Z,960.30
2019-06-26T12:31:07.762Z,960.31
2019-06-26T12:33:34.093Z,960.19
2019-06-26T12:36:00.404Z,960.29
2019-06-26T12:38:26.732Z,960.25
2019-06-26T12:40:53.036Z,960.30
2019-06-26T12:43:19.368Z,960.20
2019-06-26T12:45:45.692Z,960.26
2019-06-26T12:48:15.206Z,960.16
2019-06-26T12:50:38.321Z,960.23
2019-06-26T12:53:04.620Z,960.28
2019-06-26T12:55:33.025Z,960.22
2019-06-26T12:58:11.739Z,960.15
2019-06-26T13:00:23.580Z,960.19
2019-06-26T13:02:49.888Z,960.08
2019-06-26T13:05:16.210Z,960.03
2019-06-26T13:07:42.517Z,959.95
2019-06-26T13:10:08.840Z,959.98
2019-06-26T13:12:35.150Z,959.89
2019-06-26T13:15:01.479Z,959.88
2019-06-26T13:17:27.808Z,959.86
2019-06-26T13:19:54.142Z,959.79
2019-06-26T13:22:20.443Z,959.84
2019-06-26T13:24:46.734Z,959.72
2019-06-26T13:27:13.064Z,959.86
2019-06-26T13:29:39.369Z,959.92
2019-06-26T13:32:05.701Z,959.88
2019-06-26T13:34:32.022Z,959.80
2019-06-26T13:36:58.329Z,959.78
2019-06-26T13:39:24.660Z,959.82
2019-06-26T13:41:50.964Z,959.85
2019-06-26T13:44:17.269Z,959.79
2019-06-26T13:46:43.611Z,959.83
2019-06-26T13:49:09.921Z,959.74
2019-06-26T13:51:36.354Z,959.80
2019-06-26T13:54:02.592Z,959.73
2019-06-26T13:56:28.910Z,959.69
2019-06-26T13:58:55.212Z,959.75
2019-06-26T14:01:23.147Z,959.77
2019-06-26T14:03:47.870Z,959.69
2019-06-26T14:06:14.188Z,959.64
2019-06-26T14:08:40.560Z,959.68
2019-06-26T14:11:07.662Z,959.67
2019-06-26T14:13:33.168Z,959.61
2019-06-26T14:15:59.492Z,959.64
2019-06-26T14:18:25.819Z,959.55
2019-06-26T14:20:52.144Z,959.53
2019-06-26T14:23:18.475Z,959.53
2019-06-26T14:25:44.783Z,959.59
2019-06-26T14:28:11.123Z,959.51
2019-06-26T14:30:37.430Z,959.45
2019-06-26T14:33:03.755Z,959.49
2019-06-26T14:35:30.055Z,959.49
2019-06-26T14:37:56.388Z,959.43
2019-06-26T14:40:22.692Z,959.49
2019-06-26T14:42:49.178Z,959.48
2019-06-26T14:45:15.324Z,959.47
2019-06-26T14:47:41.630Z,959.49
2019-06-26T14:50:07.969Z,959.48
2019-06-26T14:52:35.222Z,959.47
2019-06-26T14:55:00.615Z,959.49
2019-06-26T14:57:26.924Z,959.49
2019-06-26T14:59:53.247Z,959.46
2019-06-26T15:02:19.571Z,959.46
2019-06-26T15:04:46.238Z,959.34
2019-06-26T15:07:12.214Z,959.27
2019-06-26T15:09:38.518Z,959.35
2019-06-26T15:12:04.856Z,959.36
2019-06-26T15:14:31.161Z,959.34
2019-06-26T15:16:57.490Z,959.32
2019-06-26T15:19:23.799Z,959.32
2019-06-26T15:21:58.240Z,959.42
2019-06-26T15:24:16.479Z,959.45
2019-06-26T15:26:42.782Z,959.35
2019-06-26T15:29:09.118Z,959.37
2019-06-26T15:31:35.436Z,959.31
2019-06-26T15:34:01.755Z,959.37
2019-06-26T15:36:28.082Z,959.45
2019-06-26T15:38:54.388Z,959.42
2019-06-26T15:41:20.704Z,959.43
2019-06-26T15:43:47.045Z,959.39
2019-06-26T15:46:13.338Z,959.36
2019-06-26T15:48:39.746Z,959.32
2019-06-26T15:51:05.965Z,959.35
2019-06-26T15:53:32.295Z,959.30
2019-06-26T15:55:58.596Z,959.24
2019-06-26T15:58:24.927Z,959.41
2019-06-26T16:00:51.245Z,959.35
2019-06-26T16:03:17.552Z,959.48
2019-06-26T16:05:43.874Z,959.47
2019-06-26T16:08:10.181Z,959.50
2019-06-26T16:10:36.497Z,959.58
2019-06-26T16:13:02.825Z,959.66
2019-06-26T16:15:29.151Z,959.60
2019-06-26T16:17:55.457Z,959.82
2019-06-26T16:20:21.759Z,959.71
2019-06-26T16:22:48.127Z,959.74
2019-06-26T16:25:14.427Z,959.66
2019-06-26T16:27:40.751Z,959.68
2019-06-26T16:30:07.072Z,959.58
2019-06-26T16:32:33.407Z,959.55
2019-06-26T16:34:59.721Z,959.58
2019-06-26T16:37:26.051Z,959.48
2019-06-26T16:39:52.375Z,959.49
2019-06-26T16:42:18.682Z,959.50
2019-06-26T16:44:45.008Z,959.47
2019-06-26T16:47:11.312Z,959.44
2019-06-26T16:49:37.627Z,959.42
2019-06-26T16:52:04.040Z,959.37
2019-06-26T16:54:30.257Z,959.38
2019-06-26T16:56:56.582Z,959.39
2019-06-26T16:59:22.905Z,959.32
2019-06-26T17:01:49.212Z,959.39
2019-06-26T17:04:15.543Z,959.35
2019-06-26T17:06:41.962Z,959.28
2019-06-26T17:09:08.530Z,959.30
2019-06-26T17:11:34.836Z,959.23
2019-06-26T17:14:01.205Z,959.20
2019-06-26T17:16:27.522Z,959.24
2019-06-26T17:18:53.826Z,959.23
2019-06-26T17:21:20.151Z,959.31
2019-06-26T17:23:46.462Z,959.35
2019-06-26T17:26:12.787Z,959.20
2019-06-26T17:28:39.096Z,959.14
2019-06-26T17:31:05.520Z,959.05
2019-06-26T17:33:31.822Z,959.04
2019-06-26T17:35:58.142Z,959.09
2019-06-26T17:38:24.471Z,959.12
2019-06-26T17:40:50.780Z,959.14
2019-06-26T17:43:17.109Z,959.16
2019-06-26T17:45:43.413Z,959.15
2019-06-26T17:48:09.740Z,959.10
2019-06-26T17:50:36.050Z,959.15
2019-06-26T17:53:02.375Z,959.16
2019-06-26T17:55:28.686Z,959.16
2019-06-26T17:57:54.990Z,959.23
2019-06-26T18:00:21.319Z,959.26
2019-06-26T18:02:47.620Z,959.23
2019-06-26T18:05:13.947Z,959.25
2019-06-26T18:07:40.274Z,959.29
2019-06-26T18:10:06.578Z,959.25
2019-06-26T18:12:32.903Z,959.27
2019-06-26T18:14:59.207Z,959.27
2019-06-26T18:17:25.518Z,959.31
2019-06-26T18:19:53.898Z,959.35
2019-06-26T18:22:18.142Z,959.26
2019-06-26T18:24:44.510Z,959.34
2019-06-26T18:27:10.781Z,959.42
2019-06-26T18:29:37.155Z,959.45
2019-06-26T18:32:03.466Z,959.53
2019-06-26T18:34:29.904Z,959.60
2019-06-26T18:36:56.116Z,959.61
2019-06-26T18:39:22.436Z,959.60
2019-06-26T18:41:48.763Z,959.60
2019-06-26T18:44:15.072Z,959.59
2019-06-26T18:46:41.392Z,959.71
2019-06-26T18:49:07.729Z,959.72
2019-06-26T18:51:34.029Z,959.69
2019-06-26T18:54:01.228Z,959.76
2019-06-26T18:56:26.679Z,959.78
2019-06-26T18:58:53.014Z,959.70
2019-06-26T19:01:19.353Z,959.69
2019-06-26T19:03:45.632Z,959.74
2019-06-26T19:06:11.996Z,959.74
2019-06-26T19:08:38.401Z,959.66
2019-06-26T19:11:04.760Z,959.72
2019-06-26T19:13:31.061Z,959.71
2019-06-26T19:15:57.370Z,959.62
2019-06-26T19:18:23.725Z,959.69
2019-06-26T19:20:50.001Z,959.70
2019-06-26T19:23:16.319Z,959.69
2019-06-26T19:25:42.649Z,959.60
2019-06-26T19:28:08.963Z,959.68
2019-06-26T19:30:35.288Z,959.63
2019-06-26T19:33:01.645Z,959.68
2019-06-26T19:35:27.933Z,959.63
2019-06-26T19:37:54.261Z,959.68
2019-06-26T19:40:23.834Z,959.63
2019-06-26T19:42:46.907Z,959.65
2019-06-26T19:45:13.259Z,959.68
2019-06-26T19:47:39.587Z,959.66
2019-06-26T19:50:05.892Z,959.68
2019-06-26T19:52:32.241Z,959.67
2019-06-26T19:54:58.554Z,959.65
2019-06-26T19:57:24.858Z,959.71
2019-06-26T19:59:51.194Z,959.72
2019-06-26T20:02:17.497Z,959.73
2019-06-26T20:04:43.821Z,959.76
2019-06-26T20:07:12.386Z,959.78
2019-06-26T20:09:48.265Z,959.81
2019-06-26T20:12:14.856Z,959.81
2019-06-26T20:14:43.615Z,959.83
2019-06-26T20:17:10.319Z,959.77
2019-06-26T20:19:37.166Z,959.76
2019-06-26T20:24:51.077Z,959.78
2019-06-26T20:27:19.664Z,959.82
2019-06-26T20:29:46.446Z,959.84
2019-06-26T20:32:15.045Z,959.81
2019-06-26T20:34:49.134Z,959.80
2019-06-26T20:37:15.883Z,959.79
2019-06-26T20:39:43.241Z,959.79
2019-06-26T20:42:10.969Z,959.70
2019-06-26T20:44:38.848Z,959.81
2019-06-26T20:47:08.305Z,959.80
2019-06-26T20:49:35.197Z,959.73
2019-06-26T20:52:02.395Z,959.70
2019-06-26T20:54:30.854Z,959.72
2019-06-26T20:56:57.794Z,959.74
2019-06-26T21:02:16.272Z,959.72
2019-06-26T21:04:43.210Z,959.67
2019-06-26T21:07:15.581Z,959.66
2019-06-26T21:09:42.078Z,959.63
2019-06-26T21:12:08.564Z,959.63
2019-06-26T21:14:35.040Z,959.61
2019-06-26T21:17:01.934Z,959.59
2019-06-26T21:19:28.846Z,959.63
2019-06-26T21:21:55.378Z,959.67
2019-06-26T21:24:21.897Z,959.65
2019-06-26T21:26:53.138Z,959.58
2019-06-26T21:29:19.562Z,959.60
2019-06-26T21:31:46.330Z,959.62
2019-06-26T21:34:14.003Z,959.56
2019-06-26T21:36:40.399Z,959.56
2019-06-26T21:39:07.004Z,959.59
2019-06-26T21:41:33.480Z,959.52
2019-06-26T21:44:01.473Z,959.60
2019-06-26T21:46:27.879Z,959.57
2019-06-26T21:48:54.320Z,959.58
2019-06-26T21:51:20.662Z,959.51
2019-06-26T21:53:47.071Z,959.51
2019-06-26T21:56:13.403Z,959.53
2019-06-26T21:58:39.715Z,959.49
2019-06-26T22:01:06.060Z,959.47
2019-06-26T22:03:32.385Z,959.52
2019-06-26T22:05:58.691Z,959.40
2019-06-26T22:08:25.053Z,959.49
2019-06-26T22:10:51.328Z,959.47
2019-06-26T22:13:17.637Z,959.44
2019-06-26T22:15:43.978Z,959.48
2019-06-26T22:18:10.274Z,959.44
2019-06-26T22:20:36.605Z,959.45
2019-06-26T22:23:02.917Z,959.45
2019-06-26T22:25:29.242Z,959.33
2019-06-26T22:27:55.553Z,959.41
2019-06-26T22:30:21.880Z,959.41
2019-06-26T22:32:48.203Z,959.35
2019-06-26T22:35:14.585Z,959.33
2019-06-26T22:37:40.911Z,959.25
2019-06-26T22:40:07.220Z,959.29
2019-06-26T22:42:33.544Z,959.32
2019-06-26T22:44:59.868Z,959.32
2019-06-26T22:47:26.186Z,959.25
2019-06-26T22:49:52.509Z,959.29
2019-06-26T22:52:18.815Z,959.28
2019-06-26T22:54:45.149Z,959.25
2019-06-26T22:57:11.463Z,959.23
2019-06-26T22:59:37.805Z,959.25
2019-06-26T23:02:04.126Z,959.20
2019-06-26T23:04:30.462Z,959.21
2019-06-26T23:06:56.777Z,959.19
2019-06-26T23:09:23.110Z,959.16
2019-06-26T23:11:49.442Z,959.17
2019-06-26T23:14:15.755Z,959.16
2019-06-26T23:16:42.085Z,959.14
2019-06-26T23:19:08.399Z,959.12
2019-06-26T23:21:34.718Z,959.09
2019-06-26T23:24:01.049Z,959.08
2019-06-26T23:26:27.361Z,959.07
2019-06-26T23:28:53.693Z,959.12
2019-06-26T23:31:20.031Z,959.03
2019-06-26T23:33:46.343Z,959.02
2019-06-26T23:36:12.673Z,959.10
2019-06-26T23:38:38.985Z,959.09
2019-06-26T23:41:05.322Z,959.12
2019-06-26T23:43:31.636Z,959.15
2019-06-26T23:45:57.969Z,959.13
2019-06-26T23:48:24.292Z,959.11
2019-06-26T23:50:50.593Z,958.98
2019-06-26T23:53:16.934Z,959.00
2019-06-26T23:55:43.239Z,959.02
2019-06-26T23:58:09.574Z,959.00
